F/V Cote D'ambre — FPEY — position and weather

sailwx.info

Track history (hours):
 
Tides and Currents Weather Stations Pressure Air Temp Water Temp Dewpoint Dewpoint Depression Visibility Wind Speed Wind Dir Waves Ship Positions

F/V Cote D'ambre

Last reported at 2015-May-28 18:33 UTC. Time now 2015-May-29 02:19 UTC.
Position N 47°10' W 003°27'.

Length 16 m; draft 4 m.

Type: Fishing. MMSI: 227128800.

Date/timePositionNaut miles runAvg speedWind from/ knotsBaromVisibWave heightAir tempDewpointWater temp
2015-May-28 18:33N 47°10' W 003°27'1 0.9
2015-May-28 17:16N 47°11' W 003°26'2 2.8
2015-May-28 16:24N 47°11' W 003°30'3 1.2
2015-May-28 14:18N 47°10' W 003°33'3 0.5
2015-May-28 08:21N 47°08' W 003°32'2 2.1
2015-May-28 07:33N 47°09' W 003°31'3 3.2
2015-May-28 06:34N 47°12' W 003°34'3 3.0
2015-May-28 05:33N 47°15' W 003°36'4 3.8
2015-May-28 04:33N 47°18' W 003°35'8 8.5
2015-May-28 03:33N 47°26' W 003°29'9 8.7
2015-May-28 02:33N 47°34' W 003°23'9 8.8
2015-May-28 01:33N 47°42' W 003°22'1 0.7
2015-May-28 00:33N 47°43' W 003°22'8 7.8
2015-May-27 23:33N 47°35' W 003°22'8 7.7
2015-May-27 22:33N 47°30' W 003°30'8 7.7
2015-May-27 21:33N 47°24' W 003°38'5 2.5
2015-May-27 19:33N 47°20' W 003°41'3 3.1
2015-May-27 18:34N 47°20' W 003°46'3 2.5
2015-May-27 17:33N 47°20' W 003°50'4 3.2
2015-May-27 16:23N 47°21' W 003°55'2 1.7
2015-May-27 15:28N 47°21' W 003°58'3 3.2
2015-May-27 14:32N 47°18' W 003°59'2 0.9
2015-May-27 12:27N 47°20' W 004°01'2 2.2
2015-May-27 11:31N 47°18' W 004°02'5 2.3
2015-May-27 09:20N 47°22' W 003°58'2 2.0
2015-May-27 08:30N 47°21' W 003°60'3 2.7
2015-May-27 07:21N 47°23' W 003°56'3 3.2
2015-May-27 06:15N 47°24' W 003°52'3 3.2
2015-May-27 05:26N 47°24' W 003°48'3 3.1
2015-May-27 04:33N 47°26' W 003°45'7 7.4
2015-May-27 03:33N 47°32' W 003°38'9 8.6
2015-May-27 02:33N 47°39' W 003°31'8 7.5
2015-May-27 01:33N 47°44' W 003°22'0 0.0
2015-May-27 00:33N 47°44' W 003°22'7 6.7
2015-May-26 23:33N 47°40' W 003°30'8 7.7
2015-May-26 22:33N 47°33' W 003°36'8 7.7
2015-May-26 21:33N 47°26' W 003°40'3 3.2
2015-May-26 20:33N 47°24' W 003°44'3 3.3
2015-May-26 19:33N 47°24' W 003°49'3 3.3
2015-May-26 18:32N 47°23' W 003°54'3 2.8
2015-May-26 17:30N 47°21' W 003°57'3 3.3
2015-May-26 16:33N 47°19' W 003°59'2 1.7
2015-May-26 15:33N 47°19' W 004°01'3 2.5
2015-May-26 14:24N 47°22' W 003°58'2 2.0
2015-May-26 13:33N 47°20' W 003°58'3 2.5
2015-May-26 12:31N 47°18' W 004°01'1 1.0
2015-May-26 11:29N 47°18' W 004°02'21 3.1
2015-May-26 04:33N 47°23' W 003°32'8 8.2
2015-May-26 03:33N 47°30' W 003°26'8 8.4
2015-May-26 02:33N 47°38' W 003°22'5 5.2
2015-May-26 01:32N 47°44' W 003°22'3 2.9
2015-May-26 00:33N 47°41' W 003°22'8 8.3
2015-May-25 23:33N 47°33' W 003°24'8 8.4
2015-May-25 22:33N 47°25' W 003°28'8 7.6
2015-May-25 21:33N 47°18' W 003°32'4 4.2
2015-May-25 20:33N 47°14' W 003°34'3 3.1
2015-May-25 19:29N 47°11' W 003°33'3 3.1
2015-May-25 18:23N 47°08' W 003°30'3 3.2
2015-May-25 17:34N 47°05' W 003°30'4 3.1
2015-May-25 16:20N 47°05' W 003°35'3 3.5
2015-May-25 15:34N 47°06' W 003°39'4 3.5
2015-May-25 14:16N 47°08' W 003°45'8 1.1
2015-May-25 07:27N 47°10' W 003°35'6 3.1
2015-May-25 05:32N 47°16' W 003°35'3 3.3
2015-May-25 04:33N 47°19' W 003°36'6 6.1
2015-May-25 03:33N 47°24' W 003°31'9 8.8
2015-May-25 02:33N 47°32' W 003°25'8 8.5
2015-May-25 01:33N 47°40' W 003°22'3 0.1
2015-May-23 01:33N 47°44' W 003°22'0 0.2
2015-May-23 00:33N 47°44' W 003°22'0 0.0
2015-May-22 23:33N 47°44' W 003°22'7 7.5
2015-May-22 22:33N 47°36' W 003°22'8 7.9
2015-May-22 21:33N 47°28' W 003°24'5 1.5
2015-May-22 18:23N 47°25' W 003°28'1 0.1
2015-May-22 09:21N 47°26' W 003°28'2 0.6
2015-May-22 06:22N 47°24' W 003°27'1 0.4
2015-May-22 04:04N 47°24' W 003°25'3 6.0
2015-May-22 03:32N 47°27' W 003°24'8 8.2
2015-May-22 02:33N 47°35' W 003°22'9 8.5
2015-May-22 01:33N 47°44' W 003°22'2 2.0
2015-May-22 00:34N 47°42' W 003°22'8 8.4
2015-May-21 23:34N 47°33' W 003°23'9 8.0
2015-May-21 22:29N 47°25' W 003°27'5 0.3
2015-May-21 03:33N 47°29' W 003°24'8 8.2
2015-May-21 02:33N 47°37' W 003°22'6 6.2
2015-May-21 01:31N 47°44' W 003°22'3 2.7
2015-May-21 00:33N 47°41' W 003°24'7 7.3
2015-May-20 23:33N 47°37' W 003°32'8 7.8
2015-May-20 22:33N 47°29' W 003°33'7 0.4
2015-May-20 03:24N 47°26' W 003°23'7 8.1
2015-May-20 02:33N 47°32' W 003°22'8 8.3
2015-May-20 01:33N 47°41' W 003°22'3 2.9
2015-May-20 00:31N 47°44' W 003°22'6 6.5
2015-May-19 23:33N 47°38' W 003°22'6 6.1
2015-May-19 22:33N 47°32' W 003°27'2 1.7
2015-May-19 21:33N 47°32' W 003°29'4 3.3
2015-May-19 20:28N 47°33' W 003°34'2 2.5
2015-May-19 19:33N 47°31' W 003°33'3 3.1
2015-May-19 18:33N 47°28' W 003°32'2 2.2
2015-May-19 17:28N 47°28' W 003°36'1 0.5
2015-May-19 15:33N 47°27' W 003°36'1 0.2
2015-May-19 10:30N 47°27' W 003°36'1 0.5
2015-May-19 08:04N 47°28' W 003°34'2 2.8
2015-May-19 07:31N 47°28' W 003°36'3 1.6
2015-May-19 05:33N 47°29' W 003°32'3 3.3
2015-May-19 04:31N 47°32' W 003°31'4 4.6
2015-May-19 03:33N 47°34' W 003°25'6 6.3
2015-May-19 02:32N 47°40' W 003°22'3 3.4
2015-May-19 01:31N 47°44' W 003°22'2 2.4
2015-May-19 00:33N 47°41' W 003°22'7 7.2
2015-May-18 23:33N 47°34' W 003°22'7 7.3
2015-May-18 22:33N 47°27' W 003°24'  
Track history (hours):
 
Tides and Currents Weather Stations Pressure Air Temp Water Temp Dewpoint Dewpoint Depression Visibility Wind Speed Wind Dir Waves Ship Positions

F/V Cote D'ambre

Last reported at 2015-May-28 18:33 UTC. Time now 2015-May-29 02:19 UTC.
Position N 47°10' W 003°27'.

Length 16 m; draft 4 m.

Type: Fishing. MMSI: 227128800.

Date/timePositionNaut miles runAvg speedWind from/ knotsBaromVisibWave heightAir tempDewpointWater temp
2015-May-28 18:33N 47°10' W 003°27'1 0.9
2015-May-28 17:16N 47°11' W 003°26'2 2.8
2015-May-28 16:24N 47°11' W 003°30'3 1.2
2015-May-28 14:18N 47°10' W 003°33'3 0.5
2015-May-28 08:21N 47°08' W 003°32'2 2.1
2015-May-28 07:33N 47°09' W 003°31'3 3.2
2015-May-28 06:34N 47°12' W 003°34'3 3.0
2015-May-28 05:33N 47°15' W 003°36'4 3.8
2015-May-28 04:33N 47°18' W 003°35'8 8.5
2015-May-28 03:33N 47°26' W 003°29'9 8.7
2015-May-28 02:33N 47°34' W 003°23'9 8.8
2015-May-28 01:33N 47°42' W 003°22'1 0.7
2015-May-28 00:33N 47°43' W 003°22'8 7.8
2015-May-27 23:33N 47°35' W 003°22'8 7.7
2015-May-27 22:33N 47°30' W 003°30'8 7.7
2015-May-27 21:33N 47°24' W 003°38'5 2.5
2015-May-27 19:33N 47°20' W 003°41'3 3.1
2015-May-27 18:34N 47°20' W 003°46'3 2.5
2015-May-27 17:33N 47°20' W 003°50'4 3.2
2015-May-27 16:23N 47°21' W 003°55'2 1.7
2015-May-27 15:28N 47°21' W 003°58'3 3.2
2015-May-27 14:32N 47°18' W 003°59'2 0.9
2015-May-27 12:27N 47°20' W 004°01'2 2.2
2015-May-27 11:31N 47°18' W 004°02'5 2.3
2015-May-27 09:20N 47°22' W 003°58'2 2.0
2015-May-27 08:30N 47°21' W 003°60'3 2.7
2015-May-27 07:21N 47°23' W 003°56'3 3.2
2015-May-27 06:15N 47°24' W 003°52'3 3.2
2015-May-27 05:26N 47°24' W 003°48'3 3.1
2015-May-27 04:33N 47°26' W 003°45'7 7.4
2015-May-27 03:33N 47°32' W 003°38'9 8.6
2015-May-27 02:33N 47°39' W 003°31'8 7.5
2015-May-27 01:33N 47°44' W 003°22'0 0.0
2015-May-27 00:33N 47°44' W 003°22'7 6.7
2015-May-26 23:33N 47°40' W 003°30'8 7.7
2015-May-26 22:33N 47°33' W 003°36'8 7.7
2015-May-26 21:33N 47°26' W 003°40'3 3.2
2015-May-26 20:33N 47°24' W 003°44'3 3.3
2015-May-26 19:33N 47°24' W 003°49'3 3.3
2015-May-26 18:32N 47°23' W 003°54'3 2.8
2015-May-26 17:30N 47°21' W 003°57'3 3.3
2015-May-26 16:33N 47°19' W 003°59'2 1.7
2015-May-26 15:33N 47°19' W 004°01'3 2.5
2015-May-26 14:24N 47°22' W 003°58'2 2.0
2015-May-26 13:33N 47°20' W 003°58'3 2.5
2015-May-26 12:31N 47°18' W 004°01'1 1.0
2015-May-26 11:29N 47°18' W 004°02'21 3.1
2015-May-26 04:33N 47°23' W 003°32'8 8.2
2015-May-26 03:33N 47°30' W 003°26'8 8.4
2015-May-26 02:33N 47°38' W 003°22'5 5.2
2015-May-26 01:32N 47°44' W 003°22'3 2.9
2015-May-26 00:33N 47°41' W 003°22'8 8.3
2015-May-25 23:33N 47°33' W 003°24'8 8.4
2015-May-25 22:33N 47°25' W 003°28'8 7.6
2015-May-25 21:33N 47°18' W 003°32'4 4.2
2015-May-25 20:33N 47°14' W 003°34'3 3.1
2015-May-25 19:29N 47°11' W 003°33'3 3.1
2015-May-25 18:23N 47°08' W 003°30'3 3.2
2015-May-25 17:34N 47°05' W 003°30'4 3.1
2015-May-25 16:20N 47°05' W 003°35'3 3.5
2015-May-25 15:34N 47°06' W 003°39'4 3.5
2015-May-25 14:16N 47°08' W 003°45'8 1.1
2015-May-25 07:27N 47°10' W 003°35'6 3.1
2015-May-25 05:32N 47°16' W 003°35'3 3.3
2015-May-25 04:33N 47°19' W 003°36'6 6.1
2015-May-25 03:33N 47°24' W 003°31'9 8.8
2015-May-25 02:33N 47°32' W 003°25'8 8.5
2015-May-25 01:33N 47°40' W 003°22'3 0.1
2015-May-23 01:33N 47°44' W 003°22'0 0.2
2015-May-23 00:33N 47°44' W 003°22'0 0.0
2015-May-22 23:33N 47°44' W 003°22'7 7.5
2015-May-22 22:33N 47°36' W 003°22'8 7.9
2015-May-22 21:33N 47°28' W 003°24'5 1.5
2015-May-22 18:23N 47°25' W 003°28'1 0.1
2015-May-22 09:21N 47°26' W 003°28'2 0.6
2015-May-22 06:22N 47°24' W 003°27'1 0.4
2015-May-22 04:04N 47°24' W 003°25'3 6.0
2015-May-22 03:32N 47°27' W 003°24'8 8.2
2015-May-22 02:33N 47°35' W 003°22'9 8.5
2015-May-22 01:33N 47°44' W 003°22'2 2.0
2015-May-22 00:34N 47°42' W 003°22'8 8.4
2015-May-21 23:34N 47°33' W 003°23'9 8.0
2015-May-21 22:29N 47°25' W 003°27'5 0.3
2015-May-21 03:33N 47°29' W 003°24'8 8.2
2015-May-21 02:33N 47°37' W 003°22'6 6.2
2015-May-21 01:31N 47°44' W 003°22'3 2.7
2015-May-21 00:33N 47°41' W 003°24'7 7.3
2015-May-20 23:33N 47°37' W 003°32'8 7.8
2015-May-20 22:33N 47°29' W 003°33'7 0.4
2015-May-20 03:24N 47°26' W 003°23'7 8.1
2015-May-20 02:33N 47°32' W 003°22'8 8.3
2015-May-20 01:33N 47°41' W 003°22'3 2.9
2015-May-20 00:31N 47°44' W 003°22'6 6.5
2015-May-19 23:33N 47°38' W 003°22'6 6.1
2015-May-19 22:33N 47°32' W 003°27'2 1.7
2015-May-19 21:33N 47°32' W 003°29'4 3.3
2015-May-19 20:28N 47°33' W 003°34'2 2.5
2015-May-19 19:33N 47°31' W 003°33'3 3.1
2015-May-19 18:33N 47°28' W 003°32'2 2.2
2015-May-19 17:28N 47°28' W 003°36'1 0.5
2015-May-19 15:33N 47°27' W 003°36'1 0.2
2015-May-19 10:30N 47°27' W 003°36'1 0.5
2015-May-19 08:04N 47°28' W 003°34'2 2.8
2015-May-19 07:31N 47°28' W 003°36'3 1.6
2015-May-19 05:33N 47°29' W 003°32'3 3.3
2015-May-19 04:31N 47°32' W 003°31'4 4.6
2015-May-19 03:33N 47°34' W 003°25'6 6.3
2015-May-19 02:32N 47°40' W 003°22'3 3.4
2015-May-19 01:31N 47°44' W 003°22'2 2.4
2015-May-19 00:33N 47°41' W 003°22'7 7.2
2015-May-18 23:33N 47°34' W 003°22'7 7.3
2015-May-18 22:33N 47°27' W 003°24'  

Dump ship's entire track history